Kezdőlap
METAR-TAF:

METAR-TAF

Repülőterek :

Mineral Wells Airport

Mineral Wells, Texas, Amerikai Egyesült Államok

földrajzi szélesség: 32-46-54N, földrajzi hosszúság: 098-03-37W, magasság: 297 m

Jelenlegi meteorológiai megfigyelések

A jelentés 1 órával és 5 perccel ezelõtt készült, 01:53 UTC
Délkeleti szél 4 kt
Hőmérséklet 28°C
Páratartalom 62%
Légköri nyomás 1017 hPa
Látótávolság: 16.1 km
Derült ég

METAR: KMWL 220153Z AUTO 14004KT 10SM CLR 28/20 A3004 RMK AO2 SLP159 T02830200

Idő: 21:58 (02:58 UTC)


TAF: hiányzik

Meteorológiai megfigyelések és előrejelzések több, mint 4000 repülőtéren (METAR és TAF jelentéseket).

A térképen piros és sárga pontok jelzik az elérhető meteorológiai állomásokat.

Mozgassa az egeret a pont fölött, hogy megjelenjen az állomás neve.

Azután kattintson az időjárási megfigyelések és előrejelzések megtekintéséhez.

A térkép megváltoztatása: kattintson a fekete keresztel jelölt zöld gombra ráközelítéshez, a vonallal jelölt zöld gombra távolításhoz, vagy a zöld nyilakra a szomszédos térképek eléréséhez.


METAR-TAF: